createdAt,value
2019-04-19T00:00:18.529Z,1022.78
2019-04-19T00:01:15.812Z,1022.78
2019-04-19T00:03:12.979Z,1022.79
2019-04-19T00:04:11.989Z,1022.75
2019-04-19T00:06:00.218Z,1022.74
2019-04-19T00:07:08.896Z,1022.78
2019-04-19T00:09:11.955Z,1022.80
2019-04-19T00:10:01.785Z,1022.77
2019-04-19T00:12:00.433Z,1022.83
2019-04-19T00:12:51.949Z,1022.80
2019-04-19T00:14:39.911Z,1022.82
2019-04-19T00:15:39.374Z,1022.82
2019-04-19T00:17:34.288Z,1022.78
2019-04-19T00:18:32.785Z,1022.78
2019-04-19T00:20:43.084Z,1022.80
2019-04-19T00:21:39.432Z,1022.79
2019-04-19T00:23:27.955Z,1022.77
2019-04-19T00:24:18.617Z,1022.78
2019-04-19T00:26:10.687Z,1022.77
2019-04-19T00:27:11.716Z,1022.77
2019-04-19T00:29:07.025Z,1022.78
2019-04-19T00:30:21.540Z,1022.80
2019-04-19T00:32:12.891Z,1022.78
2019-04-19T00:33:11.324Z,1022.77
2019-04-19T00:34:50.427Z,1022.78
2019-04-19T00:35:49.622Z,1022.81
2019-04-19T00:37:42.825Z,1022.79
2019-04-19T00:38:54.082Z,1022.79
2019-04-19T00:40:47.304Z,1022.83
2019-04-19T00:41:57.942Z,1022.78
2019-04-19T00:43:46.091Z,1022.81
2019-04-19T00:44:45.435Z,1022.82
2019-04-19T00:46:34.223Z,1022.82
2019-04-19T00:47:39.592Z,1022.81
2019-04-19T00:49:23.183Z,1022.84
2019-04-19T00:50:24.863Z,1022.84
2019-04-19T00:52:23.322Z,1022.84
2019-04-19T00:53:18.469Z,1022.81
2019-04-19T00:55:12.232Z,1022.84
2019-04-19T00:56:07.676Z,1022.84
2019-04-19T00:57:59.859Z,1022.84
2019-04-19T00:59:00.195Z,1022.82
2019-04-19T01:00:46.486Z,1022.83
2019-04-19T01:01:48.768Z,1022.87
2019-04-19T01:03:43.642Z,1022.86
2019-04-19T01:04:39.551Z,1022.83
2019-04-19T01:06:40.128Z,1022.85
2019-04-19T01:07:35.817Z,1022.85
2019-04-19T01:09:38.736Z,1022.86
2019-04-19T01:10:37.138Z,1022.83
2019-04-19T01:12:26.366Z,1022.85
2019-04-19T01:13:35.244Z,1022.84
2019-04-19T01:15:24.411Z,1022.83
2019-04-19T01:16:23.143Z,1022.85
2019-04-19T01:18:15.205Z,1022.86
2019-04-19T01:19:08.018Z,1022.87
2019-04-19T01:20:56.362Z,1022.85
2019-04-19T01:21:55.981Z,1022.86
2019-04-19T01:23:53.999Z,1022.88
2019-04-19T01:24:50.096Z,1022.86
2019-04-19T01:26:46.235Z,1022.87
2019-04-19T01:27:42.327Z,1022.88
2019-04-19T01:29:38.123Z,1022.87
2019-04-19T01:30:39.348Z,1022.90
2019-04-19T01:32:27.999Z,1022.89
2019-04-19T01:33:32.706Z,1022.87
2019-04-19T01:35:21.844Z,1022.92
2019-04-19T01:36:30.334Z,1022.96
2019-04-19T01:38:13.692Z,1022.94
2019-04-19T01:39:25.204Z,1022.95
2019-04-19T01:41:23.221Z,1022.95
2019-04-19T01:42:24.652Z,1022.95
2019-04-19T01:44:20.419Z,1022.95
2019-04-19T01:45:14.797Z,1022.95
2019-04-19T01:47:06.613Z,1022.95
2019-04-19T01:48:06.747Z,1022.96
2019-04-19T01:49:58.811Z,1022.96
2019-04-19T01:51:03.173Z,1022.93
2019-04-19T01:52:59.674Z,1022.95
2019-04-19T01:54:01.893Z,1022.94
2019-04-19T01:55:35.776Z,1022.97
2019-04-19T01:56:31.007Z,1022.99
2019-04-19T01:58:24.395Z,1022.98
2019-04-19T01:59:31.074Z,1022.99
2019-04-19T02:01:22.374Z,1022.97
2019-04-19T02:02:19.254Z,1022.92
2019-04-19T02:04:14.510Z,1022.96
2019-04-19T02:05:14.558Z,1022.97
2019-04-19T02:07:05.133Z,1022.99
2019-04-19T02:08:07.117Z,1023.00
2019-04-19T02:10:12.210Z,1023.01
2019-04-19T02:11:05.442Z,1022.99
2019-04-19T02:13:01.297Z,1023.00
2019-04-19T02:13:59.095Z,1023.00
2019-04-19T02:15:46.687Z,1023.02
2019-04-19T02:16:41.429Z,1023.02
2019-04-19T02:18:35.541Z,1023.04
2019-04-19T02:19:35.603Z,1023.05
2019-04-19T02:21:33.291Z,1023.08
2019-04-19T02:22:31.687Z,1023.04
2019-04-19T02:24:21.661Z,1023.06
2019-04-19T02:25:24.659Z,1023.10
2019-04-19T02:27:16.390Z,1023.09
2019-04-19T02:28:21.079Z,1023.05
2019-04-19T02:30:15.866Z,1023.04
2019-04-19T02:31:29.322Z,1023.06
2019-04-19T02:33:23.255Z,1023.09
2019-04-19T02:34:29.259Z,1023.12
2019-04-19T02:36:26.807Z,1023.16
2019-04-19T02:37:19.192Z,1023.15
2019-04-19T02:40:34.419Z,1023.14
2019-04-19T02:42:21.373Z,1023.19
2019-04-19T02:43:32.064Z,1023.22
2019-04-19T02:46:17.543Z,1023.18
2019-04-19T02:48:01.825Z,1023.21
2019-04-19T02:48:53.933Z,1023.18
2019-04-19T02:51:50.006Z,1023.25
2019-04-19T02:54:40.741Z,1023.28
2019-04-19T02:56:46.744Z,1023.27
2019-04-19T02:57:36.389Z,1023.28
2019-04-19T02:59:30.846Z,1023.30
2019-04-19T03:03:18.664Z,1023.26
2019-04-19T03:06:00.043Z,1023.24
2019-04-19T03:07:34.492Z,1023.29
2019-04-19T03:08:34.027Z,1023.28
2019-04-19T03:10:29.247Z,1023.28
2019-04-19T03:11:41.094Z,1023.31
2019-04-19T03:13:36.837Z,1023.29
2019-04-19T03:14:39.243Z,1023.27
2019-04-19T03:16:32.399Z,1023.30
2019-04-19T03:17:30.689Z,1023.30
2019-04-19T03:19:18.166Z,1023.30
2019-04-19T03:20:21.901Z,1023.33
2019-04-19T03:22:16.291Z,1023.33
2019-04-19T03:23:13.888Z,1023.33
2019-04-19T03:25:12.269Z,1023.35
2019-04-19T03:26:04.581Z,1023.35
2019-04-19T03:27:55.915Z,1023.36
2019-04-19T03:28:50.253Z,1023.34
2019-04-19T03:31:08.405Z,1023.35
2019-04-19T03:32:16.185Z,1023.32
2019-04-19T03:34:57.308Z,1023.36
2019-04-19T03:36:43.787Z,1023.41
2019-04-19T03:37:47.849Z,1023.44
2019-04-19T03:39:39.199Z,1023.43
2019-04-19T03:40:38.921Z,1023.39
2019-04-19T03:42:37.618Z,1023.41
2019-04-19T03:43:31.426Z,1023.43
2019-04-19T03:45:18.038Z,1023.41
2019-04-19T03:46:15.939Z,1023.41
2019-04-19T03:48:08.964Z,1023.39
2019-04-19T03:49:29.391Z,1023.37
2019-04-19T03:51:18.451Z,1023.40
2019-04-19T03:52:08.845Z,1023.41
2019-04-19T03:54:00.503Z,1023.36
2019-04-19T03:54:55.756Z,1023.43
2019-04-19T03:56:48.827Z,1023.39
2019-04-19T03:57:42.655Z,1023.39
2019-04-19T03:59:26.841Z,1023.44
2019-04-19T04:00:26.517Z,1023.42
2019-04-19T04:02:25.814Z,1023.42
2019-04-19T04:03:26.149Z,1023.45
2019-04-19T04:05:15.507Z,1023.46
2019-04-19T04:06:19.554Z,1023.49
2019-04-19T04:08:12.484Z,1023.50
2019-04-19T04:09:07.771Z,1023.49
2019-04-19T04:11:00.242Z,1023.55
2019-04-19T04:12:09.200Z,1023.54
2019-04-19T04:14:05.473Z,1023.53
2019-04-19T04:15:06.102Z,1023.57
2019-04-19T04:16:48.391Z,1023.56
2019-04-19T04:17:44.037Z,1023.59
2019-04-19T04:19:37.600Z,1023.58
2019-04-19T04:20:45.052Z,1023.56
2019-04-19T04:22:35.386Z,1023.61
2019-04-19T04:23:35.319Z,1023.61
2019-04-19T04:25:28.749Z,1023.54
2019-04-19T04:26:33.038Z,1023.60
2019-04-19T04:28:31.487Z,1023.62
2019-04-19T04:29:22.894Z,1023.62
2019-04-19T04:31:17.506Z,1023.62
2019-04-19T04:32:18.078Z,1023.63
2019-04-19T04:34:17.432Z,1023.63
2019-04-19T04:35:23.089Z,1023.64
2019-04-19T04:37:12.402Z,1023.64
2019-04-19T04:38:05.888Z,1023.65
2019-04-19T04:39:47.349Z,1023.66
2019-04-19T04:40:48.524Z,1023.68
2019-04-19T04:42:52.327Z,1023.70
2019-04-19T04:43:55.946Z,1023.70
2019-04-19T04:46:03.631Z,1023.68
2019-04-19T04:46:57.731Z,1023.71
2019-04-19T04:48:43.654Z,1023.75
2019-04-19T04:49:49.590Z,1023.74
2019-04-19T04:51:34.652Z,1023.75
2019-04-19T04:52:28.488Z,1023.77
2019-04-19T04:54:12.319Z,1023.76
2019-04-19T04:55:11.941Z,1023.77
2019-04-19T04:57:11.071Z,1023.77
2019-04-19T04:58:07.188Z,1023.78
2019-04-19T04:59:59.689Z,1023.78
2019-04-19T05:01:04.858Z,1023.83
2019-04-19T05:03:03.659Z,1023.80
2019-04-19T05:04:09.048Z,1023.83
2019-04-19T05:06:05.174Z,1023.82
2019-04-19T05:07:04.627Z,1023.85
2019-04-19T05:08:56.635Z,1023.87
2019-04-19T05:09:53.311Z,1023.84
2019-04-19T05:11:46.302Z,1023.87
2019-04-19T05:13:09.286Z,1023.87
2019-04-19T05:14:42.498Z,1023.90
2019-04-19T05:15:37.322Z,1023.96
2019-04-19T05:17:45.917Z,1023.94
2019-04-19T05:18:40.220Z,1023.96
2019-04-19T05:20:27.883Z,1023.95
2019-04-19T05:21:27.472Z,1023.98
2019-04-19T05:23:20.965Z,1023.96
2019-04-19T05:24:23.982Z,1023.94
2019-04-19T05:26:23.431Z,1023.95
2019-04-19T05:27:14.982Z,1023.98
2019-04-19T05:28:59.570Z,1024.00
2019-04-19T05:29:51.236Z,1024.01
2019-04-19T05:31:46.738Z,1023.99
2019-04-19T05:32:43.878Z,1024.04
2019-04-19T05:34:51.420Z,1024.03
2019-04-19T05:35:54.272Z,1024.03
2019-04-19T05:37:46.385Z,1024.03
2019-04-19T05:38:48.722Z,1024.03
2019-04-19T05:40:34.080Z,1024.05
2019-04-19T05:41:35.172Z,1024.07
2019-04-19T05:43:47.464Z,1024.07
2019-04-19T05:44:57.015Z,1024.09
2019-04-19T05:46:31.826Z,1024.06
2019-04-19T05:47:20.226Z,1024.07
2019-04-19T05:49:10.228Z,1024.11
2019-04-19T05:50:23.905Z,1024.10
2019-04-19T05:52:08.303Z,1024.10
2019-04-19T05:53:06.382Z,1024.11
2019-04-19T05:54:43.188Z,1024.14
2019-04-19T05:55:43.554Z,1024.09
2019-04-19T05:57:55.671Z,1024.15
2019-04-19T05:58:49.077Z,1024.16
2019-04-19T06:00:43.652Z,1024.14
2019-04-19T06:01:48.084Z,1024.15
2019-04-19T06:03:32.559Z,1024.18
2019-04-19T06:04:43.473Z,1024.17
2019-04-19T06:06:38.992Z,1024.21
2019-04-19T06:07:31.689Z,1024.19
2019-04-19T06:09:09.070Z,1024.16
2019-04-19T06:10:10.635Z,1024.22
2019-04-19T06:12:04.516Z,1024.22
2019-04-19T06:13:07.112Z,1024.23
2019-04-19T06:15:14.908Z,1024.26
2019-04-19T06:16:11.505Z,1024.26
2019-04-19T06:17:57.293Z,1024.26
2019-04-19T06:19:01.477Z,1024.29
2019-04-19T06:21:06.619Z,1024.29
2019-04-19T06:21:53.465Z,1024.28
2019-04-19T06:23:53.584Z,1024.30
2019-04-19T06:24:51.984Z,1024.31
2019-04-19T06:27:10.902Z,1024.35
2019-04-19T06:28:02.681Z,1024.36
2019-04-19T06:29:43.918Z,1024.31
2019-04-19T06:30:36.565Z,1024.36
2019-04-19T06:32:36.121Z,1024.38
2019-04-19T06:33:31.799Z,1024.45
2019-04-19T06:35:16.645Z,1024.40
2019-04-19T06:36:07.615Z,1024.42
2019-04-19T06:37:57.078Z,1024.42
2019-04-19T06:38:57.176Z,1024.41
2019-04-19T06:40:57.702Z,1024.40
2019-04-19T06:41:56.917Z,1024.40
2019-04-19T06:43:51.722Z,1024.44
2019-04-19T06:45:05.445Z,1024.45
2019-04-19T06:46:51.309Z,1024.48
2019-04-19T06:47:45.007Z,1024.45
2019-04-19T06:49:31.122Z,1024.46
2019-04-19T06:50:34.444Z,1024.46
2019-04-19T06:52:26.301Z,1024.45
2019-04-19T06:53:22.934Z,1024.48
2019-04-19T06:55:23.245Z,1024.50
2019-04-19T06:56:24.244Z,1024.47
2019-04-19T06:58:15.886Z,1024.48
2019-04-19T06:59:19.192Z,1024.47
2019-04-19T07:01:16.769Z,1024.47
2019-04-19T07:02:02.128Z,1024.47
2019-04-19T07:03:53.835Z,1024.46
2019-04-19T07:05:10.582Z,1024.45
2019-04-19T07:07:07.548Z,1024.42
2019-04-19T07:08:02.917Z,1024.45
2019-04-19T07:10:11.542Z,1024.43
2019-04-19T07:11:00.246Z,1024.43
2019-04-19T07:12:51.321Z,1024.46
2019-04-19T07:13:47.302Z,1024.45
2019-04-19T07:15:50.014Z,1024.45
2019-04-19T07:16:44.427Z,1024.44
2019-04-19T07:18:36.109Z,1024.45
2019-04-19T07:19:38.957Z,1024.48
2019-04-19T07:21:29.423Z,1024.41
2019-04-19T07:22:27.986Z,1024.42
2019-04-19T07:24:29.430Z,1024.42
2019-04-19T07:25:30.460Z,1024.49
2019-04-19T07:27:11.154Z,1024.52
2019-04-19T07:28:08.182Z,1024.52
2019-04-19T07:29:50.728Z,1024.55
2019-04-19T07:30:56.061Z,1024.57
2019-04-19T07:32:48.369Z,1024.55
2019-04-19T07:33:55.039Z,1024.56
2019-04-19T07:36:01.888Z,1024.57
2019-04-19T07:36:54.592Z,1024.60
2019-04-19T07:38:55.106Z,1024.64
2019-04-19T07:41:39.608Z,1024.63
2019-04-19T07:42:39.298Z,1024.66
2019-04-19T07:44:25.059Z,1024.63
2019-04-19T07:45:22.953Z,1024.66
2019-04-19T07:47:17.813Z,1024.65
2019-04-19T07:48:12.757Z,1024.62
2019-04-19T07:50:09.268Z,1024.65
2019-04-19T07:51:08.045Z,1024.62
2019-04-19T07:52:58.616Z,1024.65
2019-04-19T07:53:55.267Z,1024.63
2019-04-19T07:56:00.824Z,1024.64
2019-04-19T07:56:58.240Z,1024.64
2019-04-19T07:59:07.387Z,1024.73
2019-04-19T08:00:23.626Z,1024.65
2019-04-19T08:03:01.529Z,1024.74
2019-04-19T08:05:01.420Z,1024.64
2019-04-19T08:05:57.738Z,1024.72
2019-04-19T08:08:01.885Z,1024.67
2019-04-19T08:10:42.253Z,1024.76
2019-04-19T08:14:41.972Z,1024.69
2019-04-19T08:16:27.821Z,1024.68
2019-04-19T08:27:40.249Z,1024.78
2019-04-19T08:28:37.768Z,1024.72
2019-04-19T08:30:32.299Z,1024.75
2019-04-19T08:31:22.847Z,1024.75
2019-04-19T08:33:14.880Z,1024.73
2019-04-19T08:34:20.740Z,1024.74
2019-04-19T08:36:09.814Z,1024.68
2019-04-19T08:37:16.453Z,1024.70
2019-04-19T08:39:17.985Z,1024.74
2019-04-19T08:40:25.024Z,1024.75
2019-04-19T08:42:24.661Z,1024.75
2019-04-19T08:43:12.636Z,1024.74
2019-04-19T08:44:57.411Z,1024.75
2019-04-19T08:45:46.770Z,1024.73
2019-04-19T08:47:43.746Z,1024.69
2019-04-19T08:48:47.800Z,1024.71
2019-04-19T08:50:36.174Z,1024.72
2019-04-19T08:51:35.741Z,1024.73
2019-04-19T08:53:41.534Z,1024.75
2019-04-19T08:54:48.627Z,1024.84
2019-04-19T08:56:29.636Z,1024.73
2019-04-19T08:57:22.121Z,1024.69
2019-04-19T09:00:43.380Z,1024.71
2019-04-19T09:02:21.092Z,1024.67
2019-04-19T09:03:25.974Z,1024.72
2019-04-19T09:05:14.490Z,1024.77
2019-04-19T09:07:05.742Z,1024.70
2019-04-19T09:08:10.376Z,1024.68
2019-04-19T09:09:03.700Z,1024.75
2019-04-19T09:11:02.735Z,1024.69
2019-04-19T09:12:03.552Z,1024.71
2019-04-19T09:13:55.770Z,1024.66
2019-04-19T09:14:56.857Z,1024.70
2019-04-19T09:16:56.063Z,1024.74
2019-04-19T09:18:13.017Z,1024.73
2019-04-19T09:20:01.158Z,1024.67
2019-04-19T09:20:38.767Z,1024.70
2019-04-19T09:22:34.307Z,1024.64
2019-04-19T09:23:29.464Z,1024.68
2019-04-19T09:25:21.420Z,1024.67
2019-04-19T09:26:26.321Z,1024.65
2019-04-19T09:28:31.275Z,1024.68
2019-04-19T09:31:10.855Z,1024.69
2019-04-19T09:32:05.248Z,1024.71
2019-04-19T09:33:49.299Z,1024.64
2019-04-19T09:34:55.105Z,1024.77
2019-04-19T09:36:46.514Z,1024.69
2019-04-19T09:37:54.652Z,1024.69
2019-04-19T09:39:44.598Z,1024.62
2019-04-19T09:40:41.413Z,1024.74
2019-04-19T09:42:38.855Z,1024.59
2019-04-19T09:43:37.908Z,1024.54
2019-04-19T09:45:18.835Z,1024.61
2019-04-19T09:46:18.958Z,1024.66
2019-04-19T09:48:32.269Z,1024.59
2019-04-19T09:49:23.189Z,1024.62
2019-04-19T09:51:25.184Z,1024.62
2019-04-19T09:52:33.122Z,1024.59
2019-04-19T09:54:19.295Z,1024.61
2019-04-19T09:55:21.725Z,1024.61
2019-04-19T09:57:05.986Z,1024.61
2019-04-19T09:58:12.788Z,1024.57
2019-04-19T09:59:45.971Z,1024.60
2019-04-19T10:00:43.085Z,1024.58
2019-04-19T10:02:44.400Z,1024.58
2019-04-19T10:03:42.457Z,1024.57
2019-04-19T10:05:28.909Z,1024.52
2019-04-19T10:06:28.922Z,1024.47
2019-04-19T10:08:21.898Z,1024.50
2019-04-19T10:09:22.744Z,1024.51
2019-04-19T10:11:14.875Z,1024.49
2019-04-19T10:12:15.367Z,1024.52
2019-04-19T10:14:08.517Z,1024.50
2019-04-19T10:15:07.725Z,1024.49
2019-04-19T10:17:00.648Z,1024.44
2019-04-19T10:18:00.677Z,1024.45
2019-04-19T10:19:54.893Z,1024.39
2019-04-19T10:20:54.709Z,1024.48
2019-04-19T10:22:47.086Z,1024.45
2019-04-19T10:23:47.623Z,1024.43
2019-04-19T10:25:46.286Z,1024.39
2019-04-19T10:26:40.444Z,1024.43
2019-04-19T10:28:32.882Z,1024.41
2019-04-19T10:29:38.224Z,1024.40
2019-04-19T10:31:25.816Z,1024.43
2019-04-19T10:32:26.586Z,1024.36
2019-04-19T10:34:18.780Z,1024.40
2019-04-19T10:35:19.785Z,1024.37
2019-04-19T10:37:11.696Z,1024.41
2019-04-19T10:38:11.716Z,1024.40
2019-04-19T10:40:05.908Z,1024.35
2019-04-19T10:41:04.654Z,1024.38
2019-04-19T10:42:58.897Z,1024.29
2019-04-19T10:44:04.273Z,1024.28
2019-04-19T10:45:50.503Z,1024.42
2019-04-19T10:46:51.001Z,1024.42
2019-04-19T10:48:55.560Z,1024.43
2019-04-19T10:49:50.934Z,1024.26
2019-04-19T10:51:37.521Z,1024.37
2019-04-19T10:52:37.374Z,1024.40
2019-04-19T10:54:30.609Z,1024.26
2019-04-19T10:55:29.330Z,1024.28
2019-04-19T10:57:23.235Z,1024.25
2019-04-19T10:58:23.263Z,1024.22
2019-04-19T11:00:15.629Z,1024.25
2019-04-19T11:01:15.629Z,1024.22
2019-04-19T11:03:08.771Z,1024.23
2019-04-19T11:04:08.850Z,1024.24
2019-04-19T11:06:01.054Z,1024.24
2019-04-19T11:07:01.073Z,1024.31
2019-04-19T11:08:54.231Z,1024.27
2019-04-19T11:09:54.013Z,1024.23
2019-04-19T11:11:47.674Z,1024.26
2019-04-19T11:12:47.454Z,1024.22
2019-04-19T11:14:40.030Z,1024.17
2019-04-19T11:15:40.440Z,1024.15
2019-04-19T11:17:33.812Z,1024.18
2019-04-19T11:18:32.827Z,1024.22
2019-04-19T11:20:34.676Z,1024.21
2019-04-19T11:21:25.776Z,1024.16
2019-04-19T11:23:19.712Z,1024.23
2019-04-19T11:24:19.962Z,1024.21
2019-04-19T11:26:12.673Z,1024.23
2019-04-19T11:27:12.908Z,1024.21
2019-04-19T11:29:05.785Z,1024.20
2019-04-19T11:30:05.452Z,1024.20
2019-04-19T11:31:57.608Z,1024.19
2019-04-19T11:32:57.527Z,1024.17
2019-04-19T11:34:51.342Z,1024.20
2019-04-19T11:35:50.486Z,1024.19
2019-04-19T11:37:44.791Z,1024.12
2019-04-19T11:38:43.424Z,1024.16
2019-04-19T11:40:37.371Z,1024.19
2019-04-19T11:41:36.927Z,1024.20
2019-04-19T11:43:29.648Z,1024.23
2019-04-19T11:44:30.793Z,1024.20
2019-04-19T11:46:22.245Z,1024.19
2019-04-19T11:47:23.048Z,1024.16
2019-04-19T11:49:23.706Z,1024.17
2019-04-19T11:50:15.749Z,1024.10
2019-04-19T11:52:10.654Z,1024.12
2019-04-19T11:53:09.337Z,1024.09
2019-04-19T11:55:02.904Z,1024.11
2019-04-19T11:56:01.053Z,1024.13
2019-04-19T11:57:54.621Z,1024.08
2019-04-19T11:58:53.989Z,1024.06
2019-04-19T12:00:48.065Z,1024.08
2019-04-19T12:01:48.046Z,1024.06
2019-04-19T12:03:41.889Z,1024.10
2019-04-19T12:04:40.042Z,1024.15
2019-04-19T12:06:32.785Z,1024.07
2019-04-19T12:07:32.805Z,1024.06
2019-04-19T12:09:26.764Z,1024.06
2019-04-19T12:10:27.057Z,1024.09
2019-04-19T12:12:19.222Z,1024.08
2019-04-19T12:13:19.268Z,1024.03
2019-04-19T12:15:11.610Z,1024.07
2019-04-19T12:16:12.876Z,1024.02
2019-04-19T12:18:04.554Z,1024.02
2019-04-19T12:19:04.559Z,1023.93
2019-04-19T12:20:57.558Z,1024.02
2019-04-19T12:21:57.504Z,1023.92
2019-04-19T12:23:50.782Z,1023.97
2019-04-19T12:24:52.485Z,1023.93
2019-04-19T12:26:43.359Z,1023.91
2019-04-19T12:27:43.664Z,1023.90
2019-04-19T12:29:43.116Z,1023.96
2019-04-19T12:30:39.206Z,1023.89
2019-04-19T12:32:29.706Z,1023.98
2019-04-19T12:33:29.309Z,1023.99
2019-04-19T12:35:22.767Z,1023.96
2019-04-19T12:36:23.312Z,1024.02
2019-04-19T12:38:15.136Z,1024.03
2019-04-19T12:39:15.149Z,1024.01
2019-04-19T12:41:08.068Z,1023.95
2019-04-19T12:42:08.136Z,1023.93
2019-04-19T12:44:01.014Z,1023.90
2019-04-19T12:45:02.076Z,1023.95
2019-04-19T12:46:55.137Z,1023.93
2019-04-19T12:47:55.218Z,1023.90
2019-04-19T12:49:53.657Z,1023.87
2019-04-19T12:50:47.340Z,1023.92
2019-04-19T12:52:40.173Z,1023.79
2019-04-19T12:53:41.056Z,1023.77
2019-04-19T12:55:32.917Z,1023.79
2019-04-19T12:56:33.939Z,1023.77
2019-04-19T12:58:26.091Z,1023.83
2019-04-19T12:59:26.406Z,1023.85
2019-04-19T13:01:19.939Z,1023.87
2019-04-19T13:02:19.841Z,1023.82
2019-04-19T13:04:12.879Z,1023.81
2019-04-19T13:05:12.036Z,1023.82
2019-04-19T13:07:04.674Z,1023.73
2019-04-19T13:08:05.275Z,1023.75
2019-04-19T13:09:57.617Z,1023.71
2019-04-19T13:10:58.784Z,1023.74
2019-04-19T13:12:51.794Z,1023.67
2019-04-19T13:13:51.936Z,1023.66
2019-04-19T13:15:43.492Z,1023.71
2019-04-19T13:16:44.107Z,1023.75
2019-04-19T13:18:36.442Z,1023.66
2019-04-19T13:19:37.468Z,1023.69
2019-04-19T13:21:29.382Z,1023.65
2019-04-19T13:22:30.385Z,1023.65
2019-04-19T13:24:22.577Z,1023.66
2019-04-19T13:25:23.507Z,1023.65
2019-04-19T13:27:15.258Z,1023.60
2019-04-19T13:28:15.468Z,1023.58
2019-04-19T13:30:20.270Z,1023.61
2019-04-19T13:31:10.782Z,1023.64
2019-04-19T13:33:01.142Z,1023.64
2019-04-19T13:34:01.156Z,1023.69
2019-04-19T13:35:55.175Z,1023.61
2019-04-19T13:36:55.348Z,1023.59
2019-04-19T13:38:47.124Z,1023.62
2019-04-19T13:39:48.102Z,1023.58
2019-04-19T13:41:40.981Z,1023.64
2019-04-19T13:42:41.182Z,1023.63
2019-04-19T13:44:32.904Z,1023.55
2019-04-19T13:45:34.590Z,1023.58
2019-04-19T13:47:26.794Z,1023.50
2019-04-19T13:48:25.861Z,1023.52
2019-04-19T13:50:26.074Z,1023.55
2019-04-19T13:51:18.802Z,1023.49
2019-04-19T13:53:12.864Z,1023.54
2019-04-19T13:54:12.492Z,1023.50
2019-04-19T13:56:04.667Z,1023.49
2019-04-19T13:57:05.813Z,1023.51
2019-04-19T13:58:58.103Z,1023.45
2019-04-19T14:00:00.667Z,1023.46
2019-04-19T14:01:52.367Z,1023.42
2019-04-19T14:02:51.660Z,1023.39
2019-04-19T14:04:44.003Z,1023.52
2019-04-19T14:05:44.020Z,1023.42
2019-04-19T14:07:36.983Z,1023.39
2019-04-19T14:08:37.429Z,1023.42
2019-04-19T14:10:30.859Z,1023.40
2019-04-19T14:11:31.015Z,1023.38
2019-04-19T14:13:23.200Z,1023.38
2019-04-19T14:14:23.342Z,1023.37
2019-04-19T14:16:16.719Z,1023.33
2019-04-19T14:17:15.925Z,1023.36
2019-04-19T14:19:10.008Z,1023.34
2019-04-19T14:20:08.723Z,1023.35
2019-04-19T14:22:02.685Z,1023.43
2019-04-19T14:23:01.663Z,1023.33
2019-04-19T14:24:55.896Z,1023.30
2019-04-19T14:25:55.075Z,1023.32
2019-04-19T14:27:47.672Z,1023.37
2019-04-19T14:28:49.820Z,1023.25
2019-04-19T14:30:41.566Z,1023.27
2019-04-19T14:31:40.513Z,1023.27
2019-04-19T14:33:33.449Z,1023.23
2019-04-19T14:34:33.502Z,1023.14
2019-04-19T14:36:26.398Z,1023.21
2019-04-19T14:37:27.687Z,1023.17
2019-04-19T14:39:20.454Z,1023.19
2019-04-19T14:40:19.576Z,1023.19
2019-04-19T14:42:12.286Z,1023.19
2019-04-19T14:43:12.397Z,1023.12
2019-04-19T14:45:05.873Z,1023.14
2019-04-19T14:46:05.250Z,1023.17
2019-04-19T14:47:59.286Z,1023.18
2019-04-19T14:48:58.632Z,1023.17
2019-04-19T14:50:58.665Z,1023.13
2019-04-19T14:51:51.826Z,1023.13
2019-04-19T14:53:45.021Z,1023.21
2019-04-19T14:54:44.081Z,1023.20
2019-04-19T14:56:37.236Z,1023.16
2019-04-19T14:57:37.024Z,1023.16
2019-04-19T14:59:31.430Z,1023.15
2019-04-19T15:00:30.736Z,1023.13
2019-04-19T15:02:23.035Z,1023.13
2019-04-19T15:03:23.067Z,1023.16
2019-04-19T15:05:16.025Z,1023.05
2019-04-19T15:06:16.001Z,1023.07
2019-04-19T15:08:08.929Z,1023.03
2019-04-19T15:09:09.817Z,1023.03
2019-04-19T15:11:03.196Z,1023.05
2019-04-19T15:12:02.593Z,1023.06
2019-04-19T15:13:56.305Z,1022.99
2019-04-19T15:14:55.478Z,1023.02
2019-04-19T15:16:47.755Z,1023.02
2019-04-19T15:17:47.774Z,1023.00
2019-04-19T15:19:41.751Z,1023.02
2019-04-19T15:20:53.385Z,1023.02
2019-04-19T15:22:34.716Z,1023.04
2019-04-19T15:23:34.377Z,1022.94
2019-04-19T15:25:27.701Z,1023.00
2019-04-19T15:26:26.844Z,1023.04
2019-04-19T15:28:20.253Z,1023.00
2019-04-19T15:29:20.760Z,1023.01
2019-04-19T15:31:12.488Z,1022.98
2019-04-19T15:32:12.555Z,1023.04
2019-04-19T15:34:06.172Z,1022.94
2019-04-19T15:35:05.691Z,1022.99
2019-04-19T15:36:58.367Z,1022.98
2019-04-19T15:37:58.387Z,1022.98
2019-04-19T15:39:51.709Z,1023.04
2019-04-19T15:40:52.112Z,1023.01
2019-04-19T15:42:45.135Z,1023.00
2019-04-19T15:43:44.278Z,1022.99
2019-04-19T15:45:37.204Z,1022.98
2019-04-19T15:46:37.848Z,1022.99
2019-04-19T15:48:37.796Z,1023.04
2019-04-19T15:49:31.125Z,1023.00
2019-04-19T15:51:30.144Z,1022.95
2019-04-19T15:52:23.896Z,1022.95
2019-04-19T15:54:16.381Z,1022.99
2019-04-19T15:55:16.045Z,1022.94
2019-04-19T15:57:10.259Z,1023.00
2019-04-19T15:58:09.002Z,1023.08
2019-04-19T16:00:02.432Z,1023.08
2019-04-19T16:01:01.974Z,1022.92
2019-04-19T16:02:55.910Z,1022.88
2019-04-19T16:03:56.186Z,1022.90
2019-04-19T16:05:47.800Z,1022.90
2019-04-19T16:06:48.052Z,1022.93
2019-04-19T16:08:40.950Z,1022.93
2019-04-19T16:09:41.891Z,1022.89
2019-04-19T16:11:34.618Z,1022.94
2019-04-19T16:12:33.768Z,1022.94
2019-04-19T16:14:28.046Z,1022.93
2019-04-19T16:15:26.637Z,1022.95
2019-04-19T16:17:19.817Z,1022.92
2019-04-19T16:18:20.118Z,1022.97
2019-04-19T16:20:13.430Z,1022.96
2019-04-19T16:21:24.993Z,1022.96
2019-04-19T16:23:05.857Z,1023.02
2019-04-19T16:24:05.458Z,1022.98
2019-04-19T16:25:59.172Z,1022.96
2019-04-19T16:27:00.297Z,1022.96
2019-04-19T16:28:51.620Z,1022.94
2019-04-19T16:29:55.010Z,1022.98
2019-04-19T16:31:44.691Z,1022.95
2019-04-19T16:32:45.464Z,1022.93
2019-04-19T16:34:37.220Z,1022.97
2019-04-19T16:35:38.262Z,1022.96
2019-04-19T16:37:30.740Z,1022.94
2019-04-19T16:38:30.578Z,1022.96
2019-04-19T16:40:23.085Z,1022.92
2019-04-19T16:41:23.098Z,1022.91
2019-04-19T16:43:17.373Z,1022.94
2019-04-19T16:44:16.036Z,1022.93
2019-04-19T16:46:14.488Z,1022.92
2019-04-19T16:47:09.082Z,1022.95
2019-04-19T16:49:02.470Z,1022.90
2019-04-19T16:50:02.861Z,1022.90
2019-04-19T16:51:57.876Z,1022.87
2019-04-19T16:52:54.858Z,1022.92
2019-04-19T16:54:48.259Z,1022.92
2019-04-19T16:55:47.809Z,1022.92
2019-04-19T16:57:40.748Z,1022.90
2019-04-19T16:58:40.741Z,1022.93
2019-04-19T17:00:34.480Z,1022.91
2019-04-19T17:01:34.935Z,1022.95
2019-04-19T17:03:27.689Z,1022.91
2019-04-19T17:04:27.669Z,1022.96
2019-04-19T17:06:20.449Z,1023.01
2019-04-19T17:07:20.677Z,1022.96
2019-04-19T17:09:13.158Z,1023.00
2019-04-19T17:10:12.515Z,1022.98
2019-04-19T17:12:05.561Z,1023.03
2019-04-19T17:13:06.692Z,1023.03
2019-04-19T17:14:58.995Z,1023.04
2019-04-19T17:15:59.547Z,1023.05
2019-04-19T17:17:51.315Z,1023.03
2019-04-19T17:18:52.619Z,1023.06
2019-04-19T17:20:44.274Z,1023.06
2019-04-19T17:21:53.889Z,1023.10
2019-04-19T17:23:37.236Z,1023.04
2019-04-19T17:24:37.217Z,1023.06
2019-04-19T17:26:31.109Z,1023.07
2019-04-19T17:27:32.609Z,1023.09
2019-04-19T17:29:23.084Z,1023.11
2019-04-19T17:30:24.234Z,1023.09
2019-04-19T17:32:16.391Z,1023.14
2019-04-19T17:33:16.080Z,1023.07
2019-04-19T17:35:10.133Z,1023.11
2019-04-19T17:36:10.252Z,1023.13
2019-04-19T17:38:02.401Z,1023.10
2019-04-19T17:39:02.423Z,1023.14
2019-04-19T17:40:56.710Z,1023.14
2019-04-19T17:41:56.566Z,1023.14
2019-04-19T17:43:48.322Z,1023.16
2019-04-19T17:44:49.459Z,1023.16
2019-04-19T17:46:42.464Z,1023.14
2019-04-19T17:47:42.730Z,1023.18
2019-04-19T17:49:34.881Z,1023.18
2019-04-19T17:50:34.712Z,1023.21
2019-04-19T17:52:31.422Z,1023.21
2019-04-19T17:53:34.368Z,1023.23
2019-04-19T17:55:27.395Z,1023.24
2019-04-19T17:56:21.372Z,1023.23